createdAt,value
2022-12-08T00:00:31.993Z,99.99
2022-12-08T00:01:32.528Z,99.73
2022-12-08T00:02:32.124Z,99.94
2022-12-08T00:03:32.147Z,99.99
2022-12-08T00:04:32.055Z,99.99
2022-12-08T00:05:31.947Z,99.99
2022-12-08T00:06:32.029Z,99.99
2022-12-08T00:07:31.913Z,99.99
2022-12-08T00:08:31.888Z,99.99
2022-12-08T00:09:37.891Z,99.99
2022-12-08T00:10:48.820Z,99.99
2022-12-08T00:11:34.532Z,99.99
2022-12-08T00:12:32.608Z,99.99
2022-12-08T00:13:31.874Z,99.99
2022-12-08T00:14:31.888Z,99.99
2022-12-08T00:15:31.821Z,99.99
2022-12-08T00:16:31.882Z,99.99
2022-12-08T00:17:31.812Z,99.99
2022-12-08T00:18:31.761Z,99.99
2022-12-08T00:19:32.759Z,99.99
2022-12-08T00:20:31.820Z,99.99
2022-12-08T00:21:31.865Z,99.99
2022-12-08T00:22:31.753Z,99.99
2022-12-08T00:23:31.723Z,99.99
2022-12-08T00:24:31.713Z,99.99
2022-12-08T00:25:31.717Z,99.99
2022-12-08T00:26:31.761Z,99.99
2022-12-08T00:27:31.688Z,99.99
2022-12-08T00:28:31.681Z,99.99
2022-12-08T00:29:31.653Z,99.99
2022-12-08T00:30:31.676Z,99.99
2022-12-08T00:31:31.709Z,99.99
2022-12-08T00:32:32.610Z,99.99
2022-12-08T00:33:31.616Z,99.99
2022-12-08T00:34:33.520Z,99.99
2022-12-08T00:35:31.613Z,99.99
2022-12-08T00:36:31.644Z,99.99
2022-12-08T00:37:31.589Z,99.99
2022-12-08T00:38:31.630Z,99.99
2022-12-08T00:39:31.549Z,99.99
2022-12-08T00:40:31.580Z,99.99
2022-12-08T00:41:31.575Z,99.99
2022-12-08T00:42:32.637Z,99.99
2022-12-08T00:43:31.559Z,99.99
2022-12-08T00:44:31.492Z,99.99
2022-12-08T00:45:32.530Z,99.99
2022-12-08T00:46:31.560Z,99.99
2022-12-08T00:47:32.663Z,99.99
2022-12-08T00:48:31.477Z,99.99
2022-12-08T00:49:31.466Z,99.99
2022-12-08T00:50:31.526Z,99.99
2022-12-08T00:51:31.577Z,99.99
2022-12-08T00:52:31.558Z,99.99
2022-12-08T00:53:31.454Z,99.99
2022-12-08T00:54:31.441Z,99.99
2022-12-08T00:55:31.393Z,99.99
2022-12-08T00:56:31.385Z,99.99
2022-12-08T00:57:31.421Z,99.99
2022-12-08T00:58:32.018Z,99.99
2022-12-08T00:59:32.091Z,99.99
2022-12-08T01:00:31.334Z,99.99
2022-12-08T01:01:31.370Z,99.99
2022-12-08T01:02:32.118Z,99.99
2022-12-08T01:03:31.474Z,99.99
2022-12-08T01:04:31.353Z,99.99
2022-12-08T01:05:31.328Z,99.99
2022-12-08T01:06:31.322Z,99.99
2022-12-08T01:07:31.995Z,99.99
2022-12-08T01:08:31.273Z,99.99
2022-12-08T01:09:31.256Z,99.99
2022-12-08T01:10:31.219Z,99.99
2022-12-08T01:11:31.247Z,99.99
2022-12-08T01:12:31.253Z,99.99
2022-12-08T01:13:31.238Z,99.99
2022-12-08T01:14:31.184Z,99.99
2022-12-08T01:15:31.190Z,99.99
2022-12-08T01:16:33.096Z,99.99
2022-12-08T01:17:31.157Z,99.99
2022-12-08T01:18:31.138Z,99.99
2022-12-08T01:19:31.195Z,99.99
2022-12-08T01:20:31.118Z,99.99
2022-12-08T01:21:31.195Z,99.99
2022-12-08T01:22:31.083Z,99.99
2022-12-08T01:23:32.520Z,99.99
2022-12-08T01:24:32.066Z,99.99
2022-12-08T01:25:31.591Z,99.99
2022-12-08T01:26:31.980Z,99.99
2022-12-08T01:27:31.115Z,99.99
2022-12-08T01:28:31.597Z,99.99
2022-12-08T01:29:31.043Z,99.99
2022-12-08T01:30:32.174Z,99.99
2022-12-08T01:31:31.580Z,99.99
2022-12-08T01:32:30.976Z,99.99
2022-12-08T01:33:31.008Z,99.99
2022-12-08T01:34:30.955Z,99.99
2022-12-08T01:35:31.080Z,99.99
2022-12-08T01:36:31.625Z,99.99
2022-12-08T01:37:32.008Z,99.99
2022-12-08T01:38:30.915Z,99.99
2022-12-08T01:39:30.896Z,99.99
2022-12-08T01:40:31.493Z,99.99
2022-12-08T01:41:30.885Z,99.99
2022-12-08T01:42:31.120Z,99.99
2022-12-08T01:43:30.864Z,99.99
2022-12-08T01:44:31.481Z,99.99
2022-12-08T01:45:30.862Z,99.99
2022-12-08T01:46:30.909Z,99.99
2022-12-08T01:47:30.898Z,99.99
2022-12-08T01:48:30.980Z,99.99
2022-12-08T01:49:30.811Z,99.99
2022-12-08T01:50:30.896Z,99.99
2022-12-08T01:51:30.804Z,99.99
2022-12-08T01:52:31.518Z,99.99
2022-12-08T01:53:31.592Z,99.99
2022-12-08T01:54:31.574Z,99.99
2022-12-08T01:55:30.794Z,99.99
2022-12-08T01:56:30.704Z,99.99
2022-12-08T01:57:31.594Z,99.99
2022-12-08T01:58:30.712Z,99.99
2022-12-08T01:59:31.486Z,99.99
2022-12-08T02:00:31.133Z,99.99
2022-12-08T02:01:30.904Z,99.99
2022-12-08T02:02:30.768Z,99.99
2022-12-08T02:03:30.665Z,99.99
2022-12-08T02:04:30.638Z,99.99
2022-12-08T02:05:30.609Z,99.99
2022-12-08T02:06:31.606Z,99.99
2022-12-08T02:07:31.086Z,99.99
2022-12-08T02:08:30.687Z,99.99
2022-12-08T02:09:30.553Z,99.99
2022-12-08T02:10:30.549Z,99.99
2022-12-08T02:11:30.546Z,99.99
2022-12-08T02:12:30.527Z,99.99
2022-12-08T02:13:31.482Z,99.99
2022-12-08T02:14:30.551Z,99.99
2022-12-08T02:15:30.602Z,99.99
2022-12-08T02:16:31.589Z,99.99
2022-12-08T02:17:30.493Z,99.99
2022-12-08T02:18:30.457Z,99.99
2022-12-08T02:19:31.659Z,99.99
2022-12-08T02:20:31.466Z,99.99
2022-12-08T02:21:30.434Z,99.99
2022-12-08T02:22:31.083Z,99.99
2022-12-08T02:23:30.422Z,99.99
2022-12-08T02:24:30.418Z,99.99
2022-12-08T02:25:30.391Z,99.99
2022-12-08T02:26:30.377Z,99.99
2022-12-08T02:27:30.451Z,99.99
2022-12-08T02:28:30.427Z,99.99
2022-12-08T02:29:30.358Z,99.99
2022-12-08T02:30:30.395Z,99.99
2022-12-08T02:31:30.512Z,99.99
2022-12-08T02:32:30.355Z,99.99
2022-12-08T02:33:31.059Z,99.99
2022-12-08T02:34:30.308Z,99.99
2022-12-08T02:35:30.299Z,99.99
2022-12-08T02:36:30.276Z,99.99
2022-12-08T02:37:30.270Z,99.99
2022-12-08T02:38:30.255Z,99.99
2022-12-08T02:39:30.255Z,99.99
2022-12-08T02:40:31.066Z,99.99
2022-12-08T02:41:30.278Z,99.99
2022-12-08T02:42:30.356Z,99.99
2022-12-08T02:43:30.211Z,99.99
2022-12-08T02:44:30.960Z,99.99
2022-12-08T02:45:30.207Z,99.99
2022-12-08T02:46:30.257Z,99.99
2022-12-08T02:47:30.168Z,99.99
2022-12-08T02:48:30.142Z,99.99
2022-12-08T02:49:30.144Z,99.99
2022-12-08T02:50:30.181Z,99.99
2022-12-08T02:51:30.115Z,99.99
2022-12-08T02:52:30.105Z,99.99
2022-12-08T02:53:30.112Z,99.99
2022-12-08T02:54:30.213Z,99.99
2022-12-08T02:55:30.120Z,99.99
2022-12-08T02:56:30.064Z,99.99
2022-12-08T02:57:30.050Z,99.99
2022-12-08T02:58:30.039Z,99.99
2022-12-08T02:59:30.304Z,99.99
2022-12-08T03:00:30.060Z,99.99
2022-12-08T03:01:30.683Z,99.99
2022-12-08T03:02:30.016Z,99.99
2022-12-08T03:03:29.989Z,99.99
2022-12-08T03:04:29.972Z,99.99
2022-12-08T03:05:29.987Z,99.99
2022-12-08T03:06:29.985Z,99.99
2022-12-08T03:07:30.549Z,99.99
2022-12-08T03:08:30.635Z,99.99
2022-12-08T03:09:30.548Z,99.99
2022-12-08T03:10:29.913Z,99.99
2022-12-08T03:11:29.905Z,99.99
2022-12-08T03:12:29.913Z,99.99
2022-12-08T03:13:29.911Z,99.99
2022-12-08T03:14:30.453Z,99.99
2022-12-08T03:15:29.884Z,99.99
2022-12-08T03:16:29.966Z,99.99
2022-12-08T03:17:30.484Z,99.99
2022-12-08T03:18:29.825Z,99.99
2022-12-08T03:19:29.831Z,99.99
2022-12-08T03:20:29.841Z,99.99
2022-12-08T03:21:29.788Z,99.99
2022-12-08T03:22:29.876Z,99.99
2022-12-08T03:23:30.481Z,99.99
2022-12-08T03:24:29.797Z,99.99
2022-12-08T03:25:29.769Z,99.99
2022-12-08T03:26:29.738Z,99.99
2022-12-08T03:27:29.784Z,99.99
2022-12-08T03:28:29.709Z,99.99
2022-12-08T03:29:30.533Z,99.99
2022-12-08T03:30:29.716Z,99.99
2022-12-08T03:31:29.790Z,99.99
2022-12-08T03:32:29.681Z,99.99
2022-12-08T03:33:30.458Z,99.99
2022-12-08T03:34:29.726Z,99.99
2022-12-08T03:35:31.055Z,99.99
2022-12-08T03:36:29.626Z,99.99
2022-12-08T03:37:29.760Z,99.99
2022-12-08T03:38:29.621Z,99.99
2022-12-08T03:39:29.629Z,99.99
2022-12-08T03:40:29.607Z,99.99
2022-12-08T03:41:29.606Z,99.99
2022-12-08T03:42:29.565Z,99.99
2022-12-08T03:43:29.709Z,99.99
2022-12-08T03:44:29.554Z,99.99
2022-12-08T03:45:30.457Z,99.99
2022-12-08T03:47:16.276Z,99.99
2022-12-08T03:48:18.048Z,99.99
2022-12-08T03:49:17.356Z,99.99
2022-12-08T03:50:17.441Z,99.99
2022-12-08T03:51:18.376Z,99.99
2022-12-08T03:52:17.325Z,99.99
2022-12-08T03:53:17.343Z,99.99
2022-12-08T03:54:18.052Z,99.99
2022-12-08T03:55:17.315Z,99.99
2022-12-08T03:56:17.307Z,99.99
2022-12-08T03:57:17.338Z,99.99
2022-12-08T03:58:17.278Z,99.99
2022-12-08T03:59:17.278Z,99.99
2022-12-08T04:00:18.211Z,99.99
2022-12-08T04:01:17.244Z,99.99
2022-12-08T04:02:18.259Z,99.99
2022-12-08T04:03:17.240Z,99.99
2022-12-08T04:04:18.135Z,99.99
2022-12-08T04:05:17.203Z,99.99
2022-12-08T04:06:17.330Z,99.99
2022-12-08T04:07:17.258Z,99.77
2022-12-08T04:08:17.240Z,99.77
2022-12-08T04:09:17.163Z,99.67
2022-12-08T04:10:17.146Z,99.88
2022-12-08T04:11:17.148Z,99.67
2022-12-08T04:12:17.131Z,99.99
2022-12-08T04:13:17.167Z,99.99
2022-12-08T04:14:17.260Z,99.88
2022-12-08T04:15:17.642Z,99.57
2022-12-08T04:16:17.198Z,99.26
2022-12-08T04:17:17.075Z,99.77
2022-12-08T04:18:17.075Z,99.88
2022-12-08T04:19:17.209Z,99.77
2022-12-08T04:20:17.427Z,99.77
2022-12-08T04:21:17.242Z,99.99
2022-12-08T04:22:17.063Z,99.99
2022-12-08T04:23:17.018Z,99.99
2022-12-08T04:24:17.655Z,99.67
2022-12-08T04:25:17.004Z,99.77
2022-12-08T04:26:17.081Z,99.88
2022-12-08T04:27:18.223Z,99.63
2022-12-08T04:28:16.947Z,99.57
2022-12-08T04:29:17.009Z,99.77
2022-12-08T04:30:16.943Z,99.99
2022-12-08T04:31:16.967Z,99.77
2022-12-08T04:32:16.995Z,99.67
2022-12-08T04:33:17.979Z,99.77
2022-12-08T04:34:16.913Z,99.73
2022-12-08T04:35:16.937Z,99.77
2022-12-08T04:36:17.544Z,99.99
2022-12-08T04:37:16.883Z,99.99
2022-12-08T04:38:17.029Z,99.99
2022-12-08T04:39:17.664Z,99.99
2022-12-08T04:40:16.808Z,99.99
2022-12-08T04:41:16.985Z,99.99
2022-12-08T04:42:16.819Z,99.99
2022-12-08T04:43:17.564Z,99.99
2022-12-08T04:44:16.777Z,99.99
2022-12-08T04:45:16.836Z,99.99
2022-12-08T04:46:16.835Z,99.99
2022-12-08T04:47:16.834Z,99.99
2022-12-08T04:48:16.769Z,99.99
2022-12-08T04:49:16.832Z,99.99
2022-12-08T04:50:16.727Z,99.99
2022-12-08T04:51:16.877Z,99.99
2022-12-08T04:52:16.709Z,99.99
2022-12-08T04:53:16.681Z,99.99
2022-12-08T04:54:17.652Z,99.99
2022-12-08T04:55:16.701Z,99.99
2022-12-08T04:56:16.669Z,99.99
2022-12-08T04:57:16.698Z,99.99
2022-12-08T04:58:16.631Z,99.99
2022-12-08T04:59:16.700Z,99.99
2022-12-08T05:00:16.644Z,99.99
2022-12-08T05:01:16.653Z,99.99
2022-12-08T05:02:16.725Z,99.99
2022-12-08T05:03:16.651Z,99.99
2022-12-08T05:04:17.531Z,99.99
2022-12-08T05:05:17.169Z,99.99
2022-12-08T05:06:16.540Z,99.99
2022-12-08T05:07:16.560Z,99.99
2022-12-08T05:08:16.661Z,99.99
2022-12-08T05:09:17.147Z,99.99
2022-12-08T05:10:17.044Z,99.99
2022-12-08T05:11:16.592Z,99.99
2022-12-08T05:12:16.744Z,99.99
2022-12-08T05:13:16.477Z,99.99
2022-12-08T05:14:16.492Z,99.99
2022-12-08T05:15:17.089Z,99.99
2022-12-08T05:16:16.527Z,99.99
2022-12-08T05:17:18.035Z,99.99
2022-12-08T05:18:17.496Z,99.99
2022-12-08T05:19:16.425Z,99.99
2022-12-08T05:20:16.667Z,99.99
2022-12-08T05:21:16.389Z,99.99
2022-12-08T05:22:16.388Z,99.99
2022-12-08T05:23:16.357Z,99.99
2022-12-08T05:24:16.367Z,99.99
2022-12-08T05:25:16.396Z,99.99
2022-12-08T05:26:16.339Z,99.99
2022-12-08T05:27:16.349Z,99.99
2022-12-08T05:28:40.127Z,99.99
2022-12-08T05:29:18.372Z,99.99
2022-12-08T05:30:16.297Z,99.99
2022-12-08T05:31:16.396Z,99.99
2022-12-08T05:32:16.302Z,99.99
2022-12-08T05:33:16.249Z,99.99
2022-12-08T05:34:16.241Z,99.99
2022-12-08T05:35:16.316Z,99.99
2022-12-08T05:36:16.234Z,99.99
2022-12-08T05:37:16.233Z,99.99
2022-12-08T05:38:17.162Z,99.99
2022-12-08T05:39:16.213Z,99.99
2022-12-08T05:40:16.217Z,99.99
2022-12-08T05:41:17.029Z,99.99
2022-12-08T05:42:20.493Z,99.99
2022-12-08T05:43:17.189Z,99.99
2022-12-08T05:44:16.213Z,99.99
2022-12-08T05:45:17.149Z,99.99
2022-12-08T05:46:16.301Z,99.99
2022-12-08T05:47:16.195Z,99.99
2022-12-08T05:48:16.398Z,99.99
2022-12-08T05:49:16.097Z,99.99
2022-12-08T05:50:16.150Z,99.99
2022-12-08T05:51:16.214Z,99.99
2022-12-08T05:52:17.018Z,99.99
2022-12-08T05:53:16.044Z,99.99
2022-12-08T05:54:16.041Z,99.99
2022-12-08T05:55:16.017Z,99.99
2022-12-08T05:56:17.088Z,99.99
2022-12-08T05:57:16.270Z,99.99
2022-12-08T05:58:15.998Z,99.99
2022-12-08T05:59:15.991Z,99.99
2022-12-08T06:00:15.958Z,99.99
2022-12-08T06:01:16.535Z,99.99
2022-12-08T06:02:17.048Z,99.99
2022-12-08T06:03:16.074Z,99.99
2022-12-08T06:04:15.933Z,99.99
2022-12-08T06:05:15.907Z,99.99
2022-12-08T06:06:15.890Z,99.99
2022-12-08T06:07:16.610Z,99.99
2022-12-08T06:08:16.726Z,99.99
2022-12-08T06:09:15.881Z,99.99
2022-12-08T06:10:16.778Z,99.99
2022-12-08T06:11:15.842Z,99.99
2022-12-08T06:12:16.434Z,99.99
2022-12-08T06:13:15.855Z,99.99
2022-12-08T06:14:16.594Z,99.99
2022-12-08T06:15:15.881Z,99.99
2022-12-08T06:16:15.917Z,99.99
2022-12-08T06:17:15.844Z,99.99
2022-12-08T06:18:16.551Z,99.99
2022-12-08T06:19:16.618Z,99.99
2022-12-08T06:20:15.771Z,99.99
2022-12-08T06:21:15.852Z,99.99
2022-12-08T06:22:15.766Z,99.99
2022-12-08T06:23:15.748Z,99.99
2022-12-08T06:24:15.721Z,99.99
2022-12-08T06:25:15.694Z,99.99
2022-12-08T06:26:16.651Z,99.99
2022-12-08T06:27:15.751Z,99.99
2022-12-08T06:28:15.683Z,99.99
2022-12-08T06:29:15.656Z,99.99
2022-12-08T06:30:48.056Z,99.99
2022-12-08T06:31:15.624Z,99.99
2022-12-08T06:32:15.770Z,99.99
2022-12-08T06:33:15.618Z,99.73
2022-12-08T06:34:15.587Z,99.99
2022-12-08T06:35:15.595Z,99.99
2022-12-08T06:36:15.559Z,99.99
2022-12-08T06:37:15.583Z,99.68
2022-12-08T06:38:15.579Z,99.63
2022-12-08T06:39:15.708Z,99.58
2022-12-08T06:40:15.519Z,99.58
2022-12-08T06:41:15.522Z,99.68
2022-12-08T06:42:15.650Z,99.58
2022-12-08T06:43:15.508Z,99.90
2022-12-08T06:44:15.517Z,99.58
2022-12-08T06:45:15.477Z,99.68
2022-12-08T06:46:15.546Z,99.79
2022-12-08T06:47:15.445Z,99.99
2022-12-08T06:48:15.460Z,99.90
2022-12-08T06:49:15.413Z,99.58
2022-12-08T06:50:15.444Z,99.37
2022-12-08T06:51:15.468Z,99.48
2022-12-08T06:52:15.444Z,99.58
2022-12-08T06:53:15.395Z,99.37
2022-12-08T06:54:15.387Z,99.48
2022-12-08T06:55:35.344Z,99.48
2022-12-08T06:56:17.386Z,99.37
2022-12-08T06:57:15.341Z,99.27
2022-12-08T06:58:15.338Z,99.48
2022-12-08T06:59:15.344Z,99.48
2022-12-08T07:00:15.315Z,99.37
2022-12-08T07:01:15.349Z,99.58
2022-12-08T07:02:15.422Z,99.27
2022-12-08T07:03:15.339Z,99.48
2022-12-08T07:04:15.265Z,99.37
2022-12-08T07:05:15.273Z,99.48
2022-12-08T07:06:15.274Z,99.37
2022-12-08T07:07:15.238Z,99.27
2022-12-08T07:08:15.354Z,99.37
2022-12-08T07:09:15.325Z,99.79
2022-12-08T07:10:15.322Z,99.79
2022-12-08T07:11:20.923Z,99.68
2022-12-08T07:12:17.207Z,99.68
2022-12-08T07:13:15.167Z,99.68
2022-12-08T07:14:15.197Z,99.58
2022-12-08T07:15:15.177Z,99.37
2022-12-08T07:16:15.274Z,99.37
2022-12-08T07:17:15.180Z,99.48
2022-12-08T07:18:15.119Z,99.58
2022-12-08T07:19:15.175Z,99.48
2022-12-08T07:20:15.113Z,99.48
2022-12-08T07:21:15.113Z,99.37
2022-12-08T07:22:15.116Z,99.74
2022-12-08T07:23:15.086Z,99.12
2022-12-08T07:24:15.110Z,99.79
2022-12-08T07:25:15.055Z,99.95
2022-12-08T07:26:15.059Z,99.79
2022-12-08T07:27:16.106Z,99.79
2022-12-08T07:28:15.103Z,99.99
2022-12-08T07:29:14.991Z,99.43
2022-12-08T07:30:15.047Z,99.43
2022-12-08T07:31:15.077Z,99.54
2022-12-08T07:32:14.975Z,99.33
2022-12-08T07:33:15.008Z,99.54
2022-12-08T07:34:14.934Z,99.64
2022-12-08T07:35:14.971Z,99.58
2022-12-08T07:36:14.930Z,99.58
2022-12-08T07:37:14.939Z,99.64
2022-12-08T07:38:14.892Z,99.64
2022-12-08T07:39:14.888Z,99.64
2022-12-08T07:40:14.887Z,99.64
2022-12-08T07:41:14.955Z,99.54
2022-12-08T07:42:14.840Z,98.81
2022-12-08T07:43:14.857Z,98.71
2022-12-08T07:44:14.837Z,99.02
2022-12-08T07:45:14.826Z,98.71
2022-12-08T07:46:14.836Z,98.71
2022-12-08T07:47:14.863Z,98.91
2022-12-08T07:48:14.792Z,98.50
2022-12-08T07:49:14.780Z,98.39
2022-12-08T07:50:14.770Z,98.19
2022-12-08T07:51:14.812Z,98.29
2022-12-08T07:52:14.782Z,98.35
2022-12-08T07:53:14.762Z,98.14
2022-12-08T07:54:14.737Z,97.77
2022-12-08T07:55:14.696Z,98.19
2022-12-08T07:56:15.704Z,98.14
2022-12-08T07:57:14.680Z,97.62
2022-12-08T07:58:14.712Z,97.72
2022-12-08T07:59:14.701Z,97.72
2022-12-08T08:00:15.205Z,98.03
2022-12-08T08:01:14.822Z,97.72
2022-12-08T08:02:24.086Z,97.10
2022-12-08T08:03:16.694Z,97.20
2022-12-08T08:04:14.685Z,96.79
2022-12-08T08:05:14.660Z,97.00
2022-12-08T08:06:14.624Z,96.37
2022-12-08T08:07:14.605Z,96.33
2022-12-08T08:08:14.608Z,96.37
2022-12-08T08:09:14.573Z,96.64
2022-12-08T08:10:14.833Z,96.58
2022-12-08T08:11:20.824Z,96.64
2022-12-08T08:12:32.784Z,96.58
2022-12-08T08:13:16.531Z,96.12
2022-12-08T08:14:14.517Z,96.33
2022-12-08T08:15:15.092Z,95.81
2022-12-08T08:16:14.610Z,95.92
2022-12-08T08:17:14.561Z,96.12
2022-12-08T08:18:14.486Z,95.92
2022-12-08T08:19:14.508Z,96.02
2022-12-08T08:20:14.517Z,95.92
2022-12-08T08:21:45.101Z,96.44
2022-12-08T08:22:16.453Z,96.17
2022-12-08T08:23:14.422Z,96.64
2022-12-08T08:24:14.417Z,96.33
2022-12-08T08:25:14.470Z,95.71
2022-12-08T08:26:14.435Z,96.02
2022-12-08T08:27:14.393Z,96.33
2022-12-08T08:28:15.158Z,95.81
2022-12-08T08:29:14.390Z,96.02
2022-12-08T08:30:20.067Z,96.33
2022-12-08T08:31:16.389Z,96.39
2022-12-08T08:32:14.331Z,96.12
2022-12-08T08:33:14.346Z,95.92
2022-12-08T08:34:14.551Z,95.61
2022-12-08T08:35:14.282Z,95.81
2022-12-08T08:36:14.318Z,95.67
2022-12-08T08:37:14.307Z,95.67
2022-12-08T08:38:14.328Z,96.02
2022-12-08T08:39:14.319Z,95.71
2022-12-08T08:40:14.412Z,96.12
2022-12-08T08:41:14.263Z,96.12
2022-12-08T08:42:14.279Z,96.02
2022-12-08T08:43:14.217Z,96.23
2022-12-08T08:44:14.268Z,95.77
2022-12-08T08:45:14.193Z,96.02
2022-12-08T08:46:14.243Z,95.81
2022-12-08T08:47:14.191Z,96.44
2022-12-08T08:48:14.179Z,96.02
2022-12-08T08:49:14.170Z,96.02
2022-12-08T08:50:14.151Z,95.98
2022-12-08T08:51:14.152Z,95.61
2022-12-08T08:52:14.116Z,95.81
2022-12-08T08:53:14.159Z,95.71
2022-12-08T08:54:14.090Z,95.92
2022-12-08T08:55:14.088Z,96.02
2022-12-08T08:56:14.080Z,95.61
2022-12-08T08:57:14.063Z,95.81
2022-12-08T08:58:14.064Z,95.98
2022-12-08T08:59:15.090Z,96.12
2022-12-08T09:00:14.048Z,96.02
2022-12-08T09:01:14.061Z,95.92
2022-12-08T09:02:14.108Z,95.98
2022-12-08T09:03:14.059Z,96.23
2022-12-08T09:04:14.695Z,95.71
2022-12-08T09:05:14.068Z,96.54
2022-12-08T09:06:14.700Z,97.16
2022-12-08T09:07:14.606Z,96.12
2022-12-08T09:08:14.047Z,96.54
2022-12-08T09:09:13.989Z,96.85
2022-12-08T09:10:14.020Z,96.44
2022-12-08T09:11:14.079Z,96.44
2022-12-08T09:12:13.937Z,96.39
2022-12-08T09:13:13.881Z,96.44
2022-12-08T09:14:13.929Z,96.54
2022-12-08T09:15:13.886Z,95.81
2022-12-08T09:16:13.925Z,96.60
2022-12-08T09:17:13.949Z,96.44
2022-12-08T09:18:14.604Z,96.39
2022-12-08T09:19:13.832Z,96.64
2022-12-08T09:20:13.878Z,96.33
2022-12-08T09:21:13.789Z,96.23
2022-12-08T09:22:13.817Z,95.98
2022-12-08T09:23:13.807Z,97.02
2022-12-08T09:24:13.789Z,96.44
2022-12-08T09:25:13.790Z,96.23
2022-12-08T09:26:13.736Z,96.12
2022-12-08T09:27:13.766Z,96.33
2022-12-08T09:28:13.781Z,96.12
2022-12-08T09:29:13.775Z,96.54
2022-12-08T09:30:13.719Z,96.23
2022-12-08T09:31:13.784Z,95.81
2022-12-08T09:32:13.750Z,97.02
2022-12-08T09:33:13.742Z,95.81
2022-12-08T09:34:13.698Z,96.95
2022-12-08T09:35:14.628Z,96.02
2022-12-08T09:36:13.629Z,96.44
2022-12-08T09:37:13.641Z,96.81
2022-12-08T09:38:13.650Z,96.29
2022-12-08T09:39:13.618Z,96.85
2022-12-08T09:40:13.602Z,96.64
2022-12-08T09:41:13.667Z,96.54
2022-12-08T09:42:14.605Z,95.98
2022-12-08T09:43:13.663Z,95.92
2022-12-08T09:44:13.653Z,95.81
2022-12-08T09:45:13.577Z,96.02
2022-12-08T09:46:13.561Z,95.71
2022-12-08T09:47:13.847Z,95.87
2022-12-08T09:48:13.577Z,96.02
2022-12-08T09:49:13.548Z,96.29
2022-12-08T09:50:13.491Z,96.81
2022-12-08T09:51:13.532Z,96.70
2022-12-08T09:52:13.466Z,96.60
2022-12-08T09:53:13.519Z,96.08
2022-12-08T09:54:13.448Z,96.60
2022-12-08T09:55:13.446Z,95.98
2022-12-08T09:56:13.475Z,97.02
2022-12-08T09:57:13.429Z,96.19
2022-12-08T09:58:13.395Z,95.98
2022-12-08T09:59:13.398Z,96.08
2022-12-08T10:00:13.415Z,96.29
2022-12-08T10:01:13.399Z,96.39
2022-12-08T10:02:13.433Z,95.87
2022-12-08T10:03:16.702Z,95.67
2022-12-08T10:04:14.345Z,95.77
2022-12-08T10:05:13.430Z,95.98
2022-12-08T10:06:13.329Z,96.29
2022-12-08T10:07:13.294Z,96.08
2022-12-08T10:08:13.442Z,95.87
2022-12-08T10:09:17.166Z,95.77
2022-12-08T10:10:14.316Z,95.67
2022-12-08T10:11:13.269Z,95.77
2022-12-08T10:12:13.403Z,95.46
2022-12-08T10:13:13.305Z,95.98
2022-12-08T10:14:13.234Z,95.56
2022-12-08T10:15:13.243Z,95.87
2022-12-08T10:16:21.195Z,95.46
2022-12-08T10:17:14.296Z,95.72
2022-12-08T10:18:13.183Z,95.83
2022-12-08T10:19:13.173Z,95.87
2022-12-08T10:20:13.189Z,95.72
2022-12-08T10:21:13.221Z,95.31
2022-12-08T10:22:13.151Z,95.36
2022-12-08T10:23:13.139Z,95.72
2022-12-08T10:24:13.132Z,95.20
2022-12-08T10:25:13.172Z,95.56
2022-12-08T10:26:13.129Z,95.31
2022-12-08T10:27:13.106Z,95.10
2022-12-08T10:28:13.125Z,95.20
2022-12-08T10:29:13.097Z,95.00
2022-12-08T10:30:13.324Z,95.00
2022-12-08T10:31:13.085Z,94.68
2022-12-08T10:32:13.070Z,95.10
2022-12-08T10:33:13.027Z,94.89
2022-12-08T10:34:13.029Z,94.12
2022-12-08T10:35:13.036Z,94.68
2022-12-08T10:36:13.028Z,94.85
2022-12-08T10:37:13.017Z,93.85
2022-12-08T10:38:13.013Z,94.06
2022-12-08T10:39:12.973Z,93.71
2022-12-08T10:40:12.962Z,93.91
2022-12-08T10:41:12.972Z,94.33
2022-12-08T10:42:12.973Z,94.85
2022-12-08T10:43:12.991Z,93.91
2022-12-08T10:44:13.033Z,94.02
2022-12-08T10:45:12.905Z,93.91
2022-12-08T10:46:13.040Z,94.12
2022-12-08T10:47:12.970Z,93.77
2022-12-08T10:48:13.010Z,93.91
2022-12-08T10:49:12.895Z,93.19
2022-12-08T10:50:12.873Z,93.50
2022-12-08T10:51:12.861Z,93.08
2022-12-08T10:52:12.823Z,93.04
2022-12-08T10:53:12.824Z,93.25
2022-12-08T10:54:13.756Z,92.98
2022-12-08T10:55:12.844Z,93.15
2022-12-08T10:56:12.781Z,93.15
2022-12-08T10:57:12.811Z,93.04
2022-12-08T10:58:12.759Z,92.53
2022-12-08T10:59:12.792Z,92.32
2022-12-08T11:00:14.423Z,92.32
2022-12-08T11:01:14.776Z,92.32
2022-12-08T11:02:12.877Z,92.22
2022-12-08T11:03:12.727Z,92.22
2022-12-08T11:04:12.697Z,92.63
2022-12-08T11:05:12.702Z,92.11
2022-12-08T11:06:12.685Z,92.01
2022-12-08T11:07:12.683Z,92.43
2022-12-08T11:08:12.743Z,92.32
2022-12-08T11:09:12.707Z,92.22
2022-12-08T11:10:12.626Z,91.97
2022-12-08T11:11:12.668Z,91.80
2022-12-08T11:12:12.639Z,92.32
2022-12-08T11:13:12.728Z,92.18
2022-12-08T11:14:12.664Z,91.45
2022-12-08T11:15:12.627Z,91.55
2022-12-08T11:16:12.610Z,91.66
2022-12-08T11:17:12.553Z,91.86
2022-12-08T11:18:12.540Z,92.07
2022-12-08T11:19:12.589Z,91.97
2022-12-08T11:20:12.562Z,91.35
2022-12-08T11:21:12.602Z,91.03
2022-12-08T11:22:12.560Z,91.14
2022-12-08T11:23:12.571Z,91.55
2022-12-08T11:24:13.092Z,91.24
2022-12-08T11:25:12.501Z,90.62
2022-12-08T11:26:12.511Z,91.03
2022-12-08T11:27:12.467Z,91.03
2022-12-08T11:28:12.434Z,90.72
2022-12-08T11:29:12.443Z,90.83
2022-12-08T11:30:14.567Z,91.03
2022-12-08T11:31:13.473Z,90.93
2022-12-08T11:32:12.484Z,91.66
2022-12-08T11:33:12.402Z,91.39
2022-12-08T11:34:12.410Z,91.14
2022-12-08T11:35:12.383Z,91.82
2022-12-08T11:36:12.351Z,91.03
2022-12-08T11:37:12.395Z,91.45
2022-12-08T11:38:21.448Z,91.35
2022-12-08T11:39:14.399Z,91.24
2022-12-08T11:40:12.346Z,91.66
2022-12-08T11:41:16.030Z,91.97
2022-12-08T11:42:12.329Z,91.03
2022-12-08T11:43:12.356Z,91.24
2022-12-08T11:44:12.370Z,91.09
2022-12-08T11:45:12.319Z,91.14
2022-12-08T11:46:12.308Z,91.45
2022-12-08T11:47:12.256Z,91.09
2022-12-08T11:48:12.248Z,91.09
2022-12-08T11:49:12.275Z,89.44
2022-12-08T11:50:16.611Z,89.03
2022-12-08T11:51:13.247Z,89.54
2022-12-08T11:52:12.211Z,90.84
2022-12-08T11:53:12.211Z,89.65
2022-12-08T11:54:12.180Z,89.75
2022-12-08T11:55:13.152Z,88.61
2022-12-08T11:56:12.154Z,88.30
2022-12-08T11:57:12.157Z,88.71
2022-12-08T11:58:12.194Z,88.82
2022-12-08T11:59:12.128Z,88.46
2022-12-08T12:00:13.108Z,88.51
2022-12-08T12:01:12.125Z,89.03
2022-12-08T12:02:12.140Z,88.26
2022-12-08T12:03:44.528Z,88.82
2022-12-08T12:04:12.075Z,88.20
2022-12-08T12:05:12.073Z,88.30
2022-12-08T12:06:30.435Z,87.37
2022-12-08T12:07:14.119Z,88.03
2022-12-08T12:08:12.149Z,87.78
2022-12-08T12:09:12.040Z,89.13
2022-12-08T12:10:12.006Z,88.09
2022-12-08T12:11:13.645Z,88.20
2022-12-08T12:12:12.119Z,88.92
2022-12-08T12:13:12.620Z,88.86
2022-12-08T12:14:12.044Z,88.09
2022-12-08T12:15:11.968Z,88.82
2022-12-08T12:16:12.019Z,88.40
2022-12-08T12:17:12.573Z,87.99
2022-12-08T12:18:16.521Z,88.09
2022-12-08T12:19:13.068Z,88.30
2022-12-08T12:20:12.537Z,89.03
2022-12-08T12:21:11.903Z,88.30
2022-12-08T12:22:12.021Z,87.93
2022-12-08T12:23:12.997Z,88.30
2022-12-08T12:24:13.522Z,89.03
2022-12-08T12:25:12.522Z,88.40
2022-12-08T12:26:11.924Z,88.76
2022-12-08T12:27:12.550Z,88.55
2022-12-08T12:28:11.836Z,88.76
2022-12-08T12:29:11.962Z,89.17
2022-12-08T12:30:11.861Z,88.86
2022-12-08T12:31:11.953Z,88.65
2022-12-08T12:32:12.485Z,88.65
2022-12-08T12:33:11.801Z,88.76
2022-12-08T12:34:15.519Z,88.96
2022-12-08T12:35:12.510Z,89.34
2022-12-08T12:36:12.914Z,89.03
2022-12-08T12:37:11.772Z,88.51
2022-12-08T12:38:12.602Z,88.71
2022-12-08T12:39:11.759Z,88.96
2022-12-08T12:40:13.560Z,88.82
2022-12-08T12:41:11.743Z,88.86
2022-12-08T12:42:12.718Z,88.92
2022-12-08T12:43:14.441Z,88.92
2022-12-08T12:44:11.693Z,88.61
2022-12-08T12:45:12.985Z,88.71
2022-12-08T12:46:13.527Z,87.10
2022-12-08T12:47:12.595Z,86.47
2022-12-08T12:48:11.654Z,87.41
2022-12-08T12:49:12.155Z,86.33
2022-12-08T12:50:43.550Z,86.33
2022-12-08T12:51:11.614Z,85.82
2022-12-08T12:52:12.107Z,86.54
2022-12-08T12:53:13.960Z,86.23